PWSweather.com
Personal Weather Stations
Station Observations
KJ4AJP
Beautiful Downtown Gardner, Martin, TN 38237

Beautiful Downtown GardnerMartin, TN 38237

Lat: 36.358, Lon: -88.8994

Elevation: 384.3

Station Type: TP1080WC

http://weather.mambm.com/

High Low Average
Temperature 67.5°F19.7°C 42.3°F5.7°C 57.2°F14.0°C
Dew Point 61.3°F16.3°C 40.6°F4.8°C 52.5°F11.4°C
Winds 11.4 mph 18.3 kmh Calm Calm 3.0 mph SE4.8 kmh SE
Wind Gusts 22.8 mph36.7 kmh 0.7 mph1.1 kmh 8.0 mph12.9 kmh
Humidity 99% 70% 85%
Pressure 29.96 in1014.6 mb 29.78 in1008.5 mb -
Precipitation 0.00 in0.0 mm - -
Hour Temp Dew Point Humidity Winds Wind Gusts Pressure Precip Precip Rate Daily Precip Total
12:00 AM 51.4°F10.8°C 45.5°F7.5°C 80% 1.6 mph SSW2.6 kmh SSW 7.6 mph12.2 kmh 29.87 in1011.5 mb 0.00 in0.0 mm 0.00 in0.0 mm 0.00 in0.0 mm
12:15 AM 51.6°F10.9°C 45.7°F7.6°C 80% 0.7 mph SSW1.1 kmh SSW 6.0 mph9.7 kmh 29.88 in1011.9 mb 0.00 in0.0 mm 0.00 in0.0 mm 0.00 in0.0 mm
12:30 AM 51.8°F11.0°C 45.8°F7.7°C 80% 0.7 mph S1.1 kmh S 4.5 mph7.2 kmh 29.88 in1011.9 mb 0.00 in0.0 mm 0.00 in0.0 mm 0.00 in0.0 mm
12:45 AM 51.1°F10.6°C 45.1°F7.3°C 80% 0.7 mph SSW1.1 kmh SSW 4.5 mph7.2 kmh 29.88 in1011.9 mb 0.00 in0.0 mm 0.00 in0.0 mm 0.00 in0.0 mm
01:00 AM 50.2°F10.1°C 44.6°F7.0°C 81% 1.6 mph S2.6 kmh S 4.5 mph7.2 kmh 29.89 in1012.2 mb 0.00 in0.0 mm 0.00 in0.0 mm 0.00 in0.0 mm
01:15 AM 49.5°F9.7°C 44.2°F6.8°C 82% 1.6 mph SSW2.6 kmh SSW 3.8 mph6.1 kmh 29.88 in1011.9 mb 0.00 in0.0 mm 0.00 in0.0 mm 0.00 in0.0 mm
01:30 AM 48.9°F9.4°C 44.0°F6.7°C 83% Calm Calm 3.1 mph5.0 kmh 29.89 in1012.2 mb 0.00 in0.0 mm 0.00 in0.0 mm 0.00 in0.0 mm
01:45 AM 48.2°F9.0°C 43.6°F6.4°C 84% Calm Calm 1.6 mph2.6 kmh 29.88 in1011.9 mb 0.00 in0.0 mm 0.00 in0.0 mm 0.00 in0.0 mm
02:00 AM 47.5°F8.6°C 43.2°F6.2°C 85% Calm Calm 1.6 mph2.6 kmh 29.89 in1012.2 mb 0.00 in0.0 mm 0.00 in0.0 mm 0.00 in0.0 mm
02:15 AM 46.9°F8.3°C 43.0°F6.1°C 86% Calm Calm 0.7 mph1.1 kmh 29.89 in1012.2 mb 0.00 in0.0 mm 0.00 in0.0 mm 0.00 in0.0 mm
02:30 AM 46.6°F8.1°C 42.9°F6.1°C 87% 0.7 mph E1.1 kmh E 2.2 mph3.5 kmh 29.90 in1012.5 mb 0.00 in0.0 mm 0.00 in0.0 mm 0.00 in0.0 mm
02:45 AM 45.7°F7.6°C 42.0°F5.6°C 87% 0.7 mph SE1.1 kmh SE 2.2 mph3.5 kmh 29.89 in1012.2 mb 0.00 in0.0 mm 0.00 in0.0 mm 0.00 in0.0 mm
03:00 AM 45.0°F7.2°C 41.6°F5.3°C 88% 1.6 mph SE2.6 kmh SE 3.1 mph5.0 kmh 29.90 in1012.5 mb 0.00 in0.0 mm 0.00 in0.0 mm 0.00 in0.0 mm
03:15 AM 44.2°F6.8°C 41.2°F5.1°C 89% 1.6 mph SE2.6 kmh SE 3.1 mph5.0 kmh 29.90 in1012.5 mb 0.00 in0.0 mm 0.00 in0.0 mm 0.00 in0.0 mm
03:30 AM 44.2°F6.8°C 41.8°F5.4°C 91% 1.6 mph SE2.6 kmh SE 3.1 mph5.0 kmh 29.90 in1012.5 mb 0.00 in0.0 mm 0.00 in0.0 mm 0.00 in0.0 mm
03:45 AM 44.2°F6.8°C 41.8°F5.4°C 91% 0.7 mph SE1.1 kmh SE 3.1 mph5.0 kmh 29.90 in1012.5 mb 0.00 in0.0 mm 0.00 in0.0 mm 0.00 in0.0 mm
04:00 AM 44.2°F6.8°C 42.1°F5.6°C 92% 0.7 mph SE1.1 kmh SE 3.1 mph5.0 kmh 29.90 in1012.5 mb 0.00 in0.0 mm 0.00 in0.0 mm 0.00 in0.0 mm
04:15 AM 44.2°F6.8°C 41.8°F5.4°C 91% 0.7 mph SE1.1 kmh SE 3.1 mph5.0 kmh 29.91 in1012.9 mb 0.00 in0.0 mm 0.00 in0.0 mm 0.00 in0.0 mm
04:30 AM 43.9°F6.6°C 41.4°F5.2°C 91% 0.7 mph SE1.1 kmh SE 2.2 mph3.5 kmh 29.91 in1012.9 mb 0.00 in0.0 mm 0.00 in0.0 mm 0.00 in0.0 mm
04:45 AM 43.7°F6.5°C 41.5°F5.3°C 92% 1.6 mph SE2.6 kmh SE 3.1 mph5.0 kmh 29.92 in1013.2 mb 0.00 in0.0 mm 0.00 in0.0 mm 0.00 in0.0 mm
05:00 AM 43.2°F6.2°C 41.0°F5.0°C 92% 0.7 mph E1.1 kmh E 1.6 mph2.6 kmh 29.93 in1013.5 mb 0.00 in0.0 mm 0.00 in0.0 mm 0.00 in0.0 mm
05:15 AM 42.4°F5.8°C 40.6°F4.8°C 93% 0.7 mph NE1.1 kmh NE 1.6 mph2.6 kmh 29.93 in1013.5 mb 0.00 in0.0 mm 0.00 in0.0 mm 0.00 in0.0 mm
05:30 AM 42.3°F5.7°C 40.7°F4.8°C 94% Calm Calm 1.6 mph2.6 kmh 29.93 in1013.5 mb 0.00 in0.0 mm 0.00 in0.0 mm 0.00 in0.0 mm
05:45 AM 42.3°F5.7°C 40.9°F4.9°C 95% 0.7 mph E1.1 kmh E 1.6 mph2.6 kmh 29.93 in1013.5 mb 0.00 in0.0 mm 0.00 in0.0 mm 0.00 in0.0 mm
06:00 AM 42.3°F5.7°C 40.9°F4.9°C 95% 1.6 mph NE2.6 kmh NE 2.2 mph3.5 kmh 29.94 in1013.9 mb 0.00 in0.0 mm 0.00 in0.0 mm 0.00 in0.0 mm
06:15 AM 42.3°F5.7°C 41.2°F5.1°C 96% Calm Calm 3.1 mph5.0 kmh 29.94 in1013.9 mb 0.00 in0.0 mm 0.00 in0.0 mm 0.00 in0.0 mm
06:30 AM 42.4°F5.8°C 41.7°F5.4°C 97% Calm Calm 2.2 mph3.5 kmh 29.94 in1013.9 mb 0.00 in0.0 mm 0.00 in0.0 mm 0.00 in0.0 mm
06:45 AM 43.5°F6.4°C 42.7°F5.9°C 97% 1.6 mph E2.6 kmh E 3.1 mph5.0 kmh 29.95 in1014.2 mb 0.00 in0.0 mm 0.00 in0.0 mm 0.00 in0.0 mm
07:00 AM 46.2°F7.9°C 45.1°F7.3°C 96% 1.6 mph E2.6 kmh E 4.5 mph7.2 kmh 29.95 in1014.2 mb 0.00 in0.0 mm 0.00 in0.0 mm 0.00 in0.0 mm
07:15 AM 49.3°F9.6°C 46.8°F8.2°C 91% 2.2 mph ENE3.5 kmh ENE 4.5 mph7.2 kmh 29.95 in1014.2 mb 0.00 in0.0 mm 0.00 in0.0 mm 0.00 in0.0 mm
07:30 AM 50.5°F10.3°C 46.8°F8.2°C 87% 0.7 mph E1.1 kmh E 5.4 mph8.7 kmh 29.95 in1014.2 mb 0.00 in0.0 mm 0.00 in0.0 mm 0.00 in0.0 mm
07:45 AM 52.0°F11.1°C 47.6°F8.7°C 85% 3.1 mph E5.0 kmh E 5.4 mph8.7 kmh 29.95 in1014.2 mb 0.00 in0.0 mm 0.00 in0.0 mm 0.00 in0.0 mm
08:00 AM 53.8°F12.1°C 48.7°F9.3°C 83% 1.6 mph E2.6 kmh E 5.4 mph8.7 kmh 29.96 in1014.6 mb 0.00 in0.0 mm 0.00 in0.0 mm 0.00 in0.0 mm
08:15 AM 55.4°F13.0°C 49.3°F9.6°C 80% 3.1 mph ENE5.0 kmh ENE 6.9 mph11.1 kmh 29.95 in1014.2 mb 0.00 in0.0 mm 0.00 in0.0 mm 0.00 in0.0 mm
08:30 AM 56.7°F13.7°C 49.9°F9.9°C 78% 1.6 mph E2.6 kmh E 6.0 mph9.7 kmh 29.96 in1014.6 mb 0.00 in0.0 mm 0.00 in0.0 mm 0.00 in0.0 mm
08:45 AM 58.3°F14.6°C 50.8°F10.4°C 76% 1.6 mph E2.6 kmh E 6.9 mph11.1 kmh 29.96 in1014.6 mb 0.00 in0.0 mm 0.00 in0.0 mm 0.00 in0.0 mm
09:00 AM 59.2°F15.1°C 50.9°F10.5°C 74% 2.2 mph ENE3.5 kmh ENE 7.6 mph12.2 kmh 29.96 in1014.6 mb 0.00 in0.0 mm 0.00 in0.0 mm 0.00 in0.0 mm
09:15 AM 59.4°F15.2°C 50.7°F10.4°C 73% 1.6 mph ENE2.6 kmh ENE 6.9 mph11.1 kmh 29.96 in1014.6 mb 0.00 in0.0 mm 0.00 in0.0 mm 0.00 in0.0 mm
09:30 AM 59.5°F15.3°C 51.3°F10.7°C 74% 3.8 mph E6.1 kmh E 6.0 mph9.7 kmh 29.95 in1014.2 mb 0.00 in0.0 mm 0.00 in0.0 mm 0.00 in0.0 mm
09:45 AM 59.9°F15.5°C 51.6°F10.9°C 74% 2.2 mph SE3.5 kmh SE 6.9 mph11.1 kmh 29.95 in1014.2 mb 0.00 in0.0 mm 0.00 in0.0 mm 0.00 in0.0 mm
10:00 AM 60.1°F15.6°C 51.4°F10.8°C 73% 3.1 mph E5.0 kmh E 6.0 mph9.7 kmh 29.95 in1014.2 mb 0.00 in0.0 mm 0.00 in0.0 mm 0.00 in0.0 mm
10:15 AM 60.6°F15.9°C 52.3°F11.3°C 74% 1.6 mph E2.6 kmh E 6.0 mph9.7 kmh 29.95 in1014.2 mb 0.00 in0.0 mm 0.00 in0.0 mm 0.00 in0.0 mm
10:30 AM 61.5°F16.4°C 52.4°F11.3°C 72% 3.1 mph ENE5.0 kmh ENE 9.8 mph15.8 kmh 29.95 in1014.2 mb 0.00 in0.0 mm 0.00 in0.0 mm 0.00 in0.0 mm
10:45 AM 63.5°F17.5°C 53.6°F12.0°C 70% 3.1 mph E5.0 kmh E 9.8 mph15.8 kmh 29.95 in1014.2 mb 0.00 in0.0 mm 0.00 in0.0 mm 0.00 in0.0 mm
11:00 AM 63.1°F17.3°C 53.6°F12.0°C 71% 2.2 mph E3.5 kmh E 6.9 mph11.1 kmh 29.95 in1014.2 mb 0.00 in0.0 mm 0.00 in0.0 mm 0.00 in0.0 mm
11:15 AM 63.1°F17.3°C 53.6°F12.0°C 71% 2.2 mph NE3.5 kmh NE 4.5 mph7.2 kmh 29.95 in1014.2 mb 0.00 in0.0 mm 0.00 in0.0 mm 0.00 in0.0 mm
11:30 AM 63.5°F17.5°C 54.3°F12.4°C 72% 0.7 mph E1.1 kmh E 5.4 mph8.7 kmh 29.95 in1014.2 mb 0.00 in0.0 mm 0.00 in0.0 mm 0.00 in0.0 mm
11:45 AM 63.9°F17.7°C 55.1°F12.8°C 73% 3.1 mph E5.0 kmh E 6.9 mph11.1 kmh 29.94 in1013.9 mb 0.00 in0.0 mm 0.00 in0.0 mm 0.00 in0.0 mm
12:00 PM 65.7°F18.7°C 56.4°F13.6°C 72% 3.1 mph E5.0 kmh E 8.3 mph13.4 kmh 29.94 in1013.9 mb 0.00 in0.0 mm 0.00 in0.0 mm 0.00 in0.0 mm
12:15 PM 67.3°F19.6°C 57.2°F14.0°C 70% 3.1 mph ENE5.0 kmh ENE 10.7 mph17.2 kmh 29.93 in1013.5 mb 0.00 in0.0 mm 0.00 in0.0 mm 0.00 in0.0 mm
12:30 PM 66.7°F19.3°C 56.7°F13.7°C 70% 3.8 mph E6.1 kmh E 9.2 mph14.8 kmh 29.93 in1013.5 mb 0.00 in0.0 mm 0.00 in0.0 mm 0.00 in0.0 mm
12:45 PM 66.2°F19.0°C 56.5°F13.6°C 71% 2.2 mph E3.5 kmh E 10.7 mph17.2 kmh 29.92 in1013.2 mb 0.00 in0.0 mm 0.00 in0.0 mm 0.00 in0.0 mm
01:00 PM 66.6°F19.2°C 57.7°F14.3°C 73% 2.2 mph E3.5 kmh E 9.2 mph14.8 kmh 29.90 in1012.5 mb 0.00 in0.0 mm 0.00 in0.0 mm 0.00 in0.0 mm
01:15 PM 67.5°F19.7°C 57.8°F14.3°C 71% 3.8 mph ENE6.1 kmh ENE 7.6 mph12.2 kmh 29.89 in1012.2 mb 0.00 in0.0 mm 0.00 in0.0 mm 0.00 in0.0 mm
01:30 PM 67.3°F19.6°C 57.6°F14.2°C 71% 2.2 mph ESE3.5 kmh ESE 6.0 mph9.7 kmh 29.90 in1012.5 mb 0.00 in0.0 mm 0.00 in0.0 mm 0.00 in0.0 mm
01:45 PM 67.1°F19.5°C 57.4°F14.1°C 71% 3.1 mph ESE5.0 kmh ESE 9.8 mph15.8 kmh 29.88 in1011.9 mb 0.00 in0.0 mm 0.00 in0.0 mm 0.00 in0.0 mm
02:00 PM 66.6°F19.2°C 56.9°F13.8°C 71% 3.8 mph SE6.1 kmh SE 9.2 mph14.8 kmh 29.88 in1011.9 mb 0.00 in0.0 mm 0.00 in0.0 mm 0.00 in0.0 mm
02:15 PM 66.4°F19.1°C 57.1°F13.9°C 72% 3.1 mph SE5.0 kmh SE 13.0 mph20.9 kmh 29.89 in1012.2 mb 0.00 in0.0 mm 0.00 in0.0 mm 0.00 in0.0 mm
02:30 PM 66.2°F19.0°C 56.9°F13.8°C 72% 8.3 mph SE13.4 kmh SE 13.6 mph21.9 kmh 29.89 in1012.2 mb 0.00 in0.0 mm 0.00 in0.0 mm 0.00 in0.0 mm
02:45 PM 65.3°F18.5°C 56.8°F13.8°C 74% 4.5 mph SE7.2 kmh SE 13.6 mph21.9 kmh 29.88 in1011.9 mb 0.00 in0.0 mm 0.00 in0.0 mm 0.00 in0.0 mm
03:00 PM 64.8°F18.2°C 57.8°F14.3°C 78% 3.8 mph SE6.1 kmh SE 9.8 mph15.8 kmh 29.88 in1011.9 mb 0.00 in0.0 mm 0.00 in0.0 mm 0.00 in0.0 mm
03:15 PM 63.9°F17.7°C 57.9°F14.4°C 81% 3.1 mph SE5.0 kmh SE 9.8 mph15.8 kmh 29.87 in1011.5 mb 0.00 in0.0 mm 0.00 in0.0 mm 0.00 in0.0 mm
03:30 PM 63.0°F17.2°C 58.1°F14.5°C 84% 3.1 mph SE5.0 kmh SE 7.6 mph12.2 kmh 29.87 in1011.5 mb 0.00 in0.0 mm 0.00 in0.0 mm 0.00 in0.0 mm
03:45 PM 62.4°F16.9°C 58.2°F14.6°C 86% 3.8 mph SE6.1 kmh SE 8.3 mph13.4 kmh 29.87 in1011.5 mb 0.00 in0.0 mm 0.00 in0.0 mm 0.00 in0.0 mm
04:00 PM 61.9°F16.6°C 58.3°F14.6°C 88% 0.7 mph SE1.1 kmh SE 6.9 mph11.1 kmh 29.86 in1011.2 mb 0.00 in0.0 mm 0.00 in0.0 mm 0.00 in0.0 mm
04:15 PM 62.4°F16.9°C 59.2°F15.1°C 89% 3.8 mph SE6.1 kmh SE 8.3 mph13.4 kmh 29.85 in1010.8 mb 0.00 in0.0 mm 0.00 in0.0 mm 0.00 in0.0 mm
04:30 PM 62.6°F17.0°C 59.3°F15.2°C 89% 3.1 mph SE5.0 kmh SE 9.2 mph14.8 kmh 29.84 in1010.5 mb 0.00 in0.0 mm 0.00 in0.0 mm 0.00 in0.0 mm
04:45 PM 62.8°F17.1°C 59.8°F15.4°C 90% 3.8 mph E6.1 kmh E 8.3 mph13.4 kmh 29.84 in1010.5 mb 0.00 in0.0 mm 0.00 in0.0 mm 0.00 in0.0 mm
05:00 PM 63.0°F17.2°C 59.7°F15.4°C 89% 3.1 mph SE5.0 kmh SE 6.0 mph9.7 kmh 29.84 in1010.5 mb 0.00 in0.0 mm 0.00 in0.0 mm 0.00 in0.0 mm
05:15 PM 62.8°F17.1°C 59.5°F15.3°C 89% 2.2 mph SE3.5 kmh SE 4.5 mph7.2 kmh 29.84 in1010.5 mb 0.00 in0.0 mm 0.00 in0.0 mm 0.00 in0.0 mm
05:30 PM 62.8°F17.1°C 59.8°F15.4°C 90% 5.4 mph ESE8.7 kmh ESE 8.3 mph13.4 kmh 29.83 in1010.2 mb 0.00 in0.0 mm 0.00 in0.0 mm 0.00 in0.0 mm
05:45 PM 62.6°F17.0°C 59.6°F15.3°C 90% 1.6 mph SE2.6 kmh SE 6.9 mph11.1 kmh 29.83 in1010.2 mb 0.00 in0.0 mm 0.00 in0.0 mm 0.00 in0.0 mm
06:00 PM 62.4°F16.9°C 59.5°F15.3°C 90% 0.7 mph SE1.1 kmh SE 3.8 mph6.1 kmh 29.83 in1010.2 mb 0.00 in0.0 mm 0.00 in0.0 mm 0.00 in0.0 mm
06:15 PM 62.1°F16.7°C 59.4°F15.2°C 91% 0.7 mph SE1.1 kmh SE 3.1 mph5.0 kmh 29.84 in1010.5 mb 0.00 in0.0 mm 0.00 in0.0 mm 0.00 in0.0 mm
06:30 PM 61.7°F16.5°C 59.1°F15.1°C 91% 2.2 mph SE3.5 kmh SE 5.4 mph8.7 kmh 29.83 in1010.2 mb 0.00 in0.0 mm 0.00 in0.0 mm 0.00 in0.0 mm
06:45 PM 61.7°F16.5°C 59.7°F15.4°C 93% 3.1 mph SSE5.0 kmh SSE 13.6 mph21.9 kmh 29.82 in1009.8 mb 0.00 in0.0 mm 0.00 in0.0 mm 0.00 in0.0 mm
07:00 PM 62.6°F17.0°C 60.3°F15.7°C 92% 2.2 mph SSE3.5 kmh SSE 11.4 mph18.3 kmh 29.82 in1009.8 mb 0.00 in0.0 mm 0.00 in0.0 mm 0.00 in0.0 mm
07:15 PM 63.1°F17.3°C 60.2°F15.7°C 90% 5.4 mph SSE8.7 kmh SSE 17.4 mph28.0 kmh 29.82 in1009.8 mb 0.00 in0.0 mm 0.00 in0.0 mm 0.00 in0.0 mm
07:30 PM 63.3°F17.4°C 60.0°F15.6°C 89% 3.8 mph SSE6.1 kmh SSE 13.0 mph20.9 kmh 29.83 in1010.2 mb 0.00 in0.0 mm 0.00 in0.0 mm 0.00 in0.0 mm
07:45 PM 63.1°F17.3°C 59.9°F15.5°C 89% 3.1 mph SSE5.0 kmh SSE 9.8 mph15.8 kmh 29.84 in1010.5 mb 0.00 in0.0 mm 0.00 in0.0 mm 0.00 in0.0 mm
08:00 PM 63.1°F17.3°C 60.2°F15.7°C 90% 6.0 mph S9.7 kmh S 13.6 mph21.9 kmh 29.86 in1011.2 mb 0.00 in0.0 mm 0.00 in0.0 mm 0.00 in0.0 mm
08:15 PM 63.0°F17.2°C 60.0°F15.6°C 90% 8.3 mph S13.4 kmh S 10.7 mph17.2 kmh 29.86 in1011.2 mb 0.00 in0.0 mm 0.00 in0.0 mm 0.00 in0.0 mm
08:30 PM 62.8°F17.1°C 59.8°F15.4°C 90% 6.0 mph S9.7 kmh S 13.6 mph21.9 kmh 29.85 in1010.8 mb 0.00 in0.0 mm 0.00 in0.0 mm 0.00 in0.0 mm
08:45 PM 62.6°F17.0°C 60.0°F15.6°C 91% 5.4 mph S8.7 kmh S 13.6 mph21.9 kmh 29.85 in1010.8 mb 0.00 in0.0 mm 0.00 in0.0 mm 0.00 in0.0 mm
09:00 PM 62.4°F16.9°C 60.1°F15.6°C 92% 4.5 mph S7.2 kmh S 14.5 mph23.3 kmh 29.85 in1010.8 mb 0.00 in0.0 mm 0.00 in0.0 mm 0.00 in0.0 mm
09:15 PM 62.2°F16.8°C 59.9°F15.5°C 92% 5.4 mph S8.7 kmh S 15.2 mph24.5 kmh 29.84 in1010.5 mb 0.00 in0.0 mm 0.00 in0.0 mm 0.00 in0.0 mm
09:30 PM 61.9°F16.6°C 59.9°F15.5°C 93% 6.0 mph S9.7 kmh S 17.4 mph28.0 kmh 29.83 in1010.2 mb 0.00 in0.0 mm 0.00 in0.0 mm 0.00 in0.0 mm
09:45 PM 62.1°F16.7°C 60.0°F15.6°C 93% 6.9 mph SSE11.1 kmh SSE 19.0 mph30.6 kmh 29.82 in1009.8 mb 0.00 in0.0 mm 0.00 in0.0 mm 0.00 in0.0 mm
10:00 PM 61.3°F16.3°C 59.9°F15.5°C 95% 9.2 mph S14.8 kmh S 22.1 mph35.6 kmh 29.83 in1010.2 mb 0.00 in0.0 mm 0.00 in0.0 mm 0.00 in0.0 mm
10:15 PM 61.5°F16.4°C 60.1°F15.6°C 95% 11.4 mph S18.3 kmh S 20.6 mph33.2 kmh 29.82 in1009.8 mb 0.00 in0.0 mm 0.00 in0.0 mm 0.00 in0.0 mm
10:30 PM 61.5°F16.4°C 60.4°F15.8°C 96% 7.6 mph SSE12.2 kmh SSE 20.6 mph33.2 kmh 29.82 in1009.8 mb 0.00 in0.0 mm 0.00 in0.0 mm 0.00 in0.0 mm
10:45 PM 61.5°F16.4°C 60.4°F15.8°C 96% 9.2 mph S14.8 kmh S 22.8 mph36.7 kmh 29.81 in1009.5 mb 0.00 in0.0 mm 0.00 in0.0 mm 0.00 in0.0 mm
11:00 PM 61.5°F16.4°C 60.7°F15.9°C 97% 9.2 mph SSE14.8 kmh SSE 17.4 mph28.0 kmh 29.81 in1009.5 mb 0.00 in0.0 mm 0.00 in0.0 mm 0.00 in0.0 mm
11:15 PM 61.5°F16.4°C 61.0°F16.1°C 98% 9.2 mph S14.8 kmh S 16.8 mph27.0 kmh 29.80 in1009.1 mb 0.00 in0.0 mm 0.00 in0.0 mm 0.00 in0.0 mm
11:30 PM 61.3°F16.3°C 60.8°F16.0°C 98% 10.7 mph S17.2 kmh S 16.8 mph27.0 kmh 29.79 in1008.8 mb 0.00 in0.0 mm 0.00 in0.0 mm 0.00 in0.0 mm
11:45 PM 61.5°F16.4°C 61.3°F16.3°C 99% 8.3 mph S13.4 kmh S 17.4 mph28.0 kmh 29.78 in1008.5 mb 0.00 in0.0 mm 0.00 in0.0 mm 0.00 in0.0 mm